Time;durP1;ratioP1;P1;durP2;ratioP2;P2;SDS_P1;SDS_P2;PMS_P1;PMS_P2;Temp;Humidity;BMP_temperature;BMP_pressure;BME280_temperature;BME280_humidity;BME280_pressure;Samples;Min_cycle;Max_cycle;Signal;HPM_P1;HPM_P2
2022/12/28 00:01:09;;;;;;;;;;;;;;;;;;;;;
2022/12/28 00:03:47;;;;;;;;;;;4.70;99.90;;;;;;5033046;28;20468;-92
2022/12/28 00:06:41;;;;;;;;;;;;;;;;;;;;;
2022/12/28 00:09:13;;;;;;;;;;;3.20;99.90;;;;;;5056152;28;19939;-91
2022/12/28 00:12:07;;;;;;;;;;;4.80;99.90;;;;;;5038562;28;19971;-92
2022/12/28 00:17:56;;;;;;;;;;;;;;;;;;;;;
2022/12/28 00:20:54;;;;;;;;;;;4.90;99.90;;;;;;5055011;28;20380;-90
2022/12/28 00:23:46;;;;;;;;;;;4.80;99.90;;;;;;5043759;28;19956;-92
2022/12/28 00:26:23;;;;;;;;;;;4.70;99.90;;;;;;5058969;28;19975;-92
2022/12/28 00:29:07;;;;;;;;;;;;;;;;;;;;;
2022/12/28 00:32:03;;;;;;;;;;;5.20;99.90;;;;;;5049509;28;20376;-93
2022/12/28 00:34:35;;;;;;;;;;;5.00;99.90;;;;;;5051826;28;19925;-90
2022/12/28 00:37:37;;;;;;;;;;;;;;;;;;;;;
2022/12/28 00:40:36;;;;;;;;;;;;;;;;;;;;;
2022/12/28 00:43:37;;;;;;;;;;;4.80;99.90;;;;;;5089753;28;19923;-96
2022/12/28 00:49:38;;;;;;;;;;;3.90;99.90;;;;;;5102855;28;19992;-94
2022/12/28 00:52:19;;;;;;;;;;;;;;;;;;;;;
2022/12/28 00:54:49;;;;;;;;;;;4.80;99.90;;;;;;5074377;28;19912;-95
2022/12/28 00:57:37;;;;;;;;;;;3.80;99.90;;;;;;5056746;28;19920;-91
2022/12/28 01:00:25;;;;;;;;;;;3.60;99.90;;;;;;5080996;28;19909;-91
2022/12/28 01:03:12;;;;;;;;;;;;;;;;;;;;;
2022/12/28 01:05:46;;;;;;;;;;;3.00;99.90;;;;;;5038835;28;19955;-91
2022/12/28 01:11:50;;;;;;;;;;;;;;;;;;;;;
2022/12/28 01:14:51;;;;;;;;;;;;;;;;;;;;;
2022/12/28 01:17:56;;;;;;;;;;;;;;;;;;;;;
2022/12/28 01:20:42;;;;;;;;;;;4.80;99.90;;;;;;5035906;28;19925;-92
2022/12/28 01:23:13;;;;;;;;;;;4.90;99.90;;;;;;4998359;28;19925;-92
2022/12/28 01:25:50;;;;;;;;;;;5.00;99.90;;;;;;5000869;28;19932;-92
2022/12/28 01:28:24;;;;;;;;;;;4.50;99.90;;;;;;5003422;28;19929;-91
2022/12/28 01:31:03;;;;;;;;;;;4.30;99.90;;;;;;4996938;28;19925;-91
2022/12/28 01:33:37;;;;;;;;;;;4.90;99.90;;;;;;5019021;28;19925;-94
2022/12/28 01:36:09;;;;;;;;;;;5.00;99.90;;;;;;5020859;28;19928;-91
2022/12/28 01:44:59;;;;;;;;;;;4.90;99.90;;;;;;5042513;28;19925;-91
2022/12/28 01:47:43;;;;;;;;;;;;;;;;;;;;;
2022/12/28 01:50:27;;;;;;;;;;;4.90;99.90;;;;;;5033687;28;19925;-91
2022/12/28 01:53:07;;;;;;;;;;;3.60;99.90;;;;;;5005222;28;19924;-91
2022/12/28 01:55:47;;;;;;;;;;;4.00;99.90;;;;;;5002385;28;19932;-92
2022/12/28 01:58:57;;;;;;;;;;;;;;;;;;;;;
2022/12/28 02:01:23;;;;;;;;;;;5.10;99.90;;;;;;5039472;28;19931;-92
2022/12/28 02:04:06;;;;;;;;;;;4.90;99.90;;;;;;5019685;28;19925;-92
2022/12/28 02:07:05;;;;;;;;;;;;;;;;;;;;;
2022/12/28 02:10:09;;;;;;;;;;;6.20;99.90;;;;;;5044743;28;20003;-94
2022/12/28 02:13:12;;;;;;;;;;;5.40;99.90;;;;;;5001379;28;20281;-90
2022/12/28 02:15:41;;;;;;;;;;;3.20;99.90;;;;;;5043755;28;19926;-93
2022/12/28 02:18:09;;;;;;;;;;;5.00;99.90;;;;;;5024422;28;19925;-91
2022/12/28 02:21:05;;;;;;;;;;;4.20;99.90;;;;;;5079431;28;19932;-90
2022/12/28 02:24:02;;;;;;;;;;;4.50;99.90;;;;;;5046791;28;20020;-92
2022/12/28 02:29:39;;;;;;;;;;;4.10;99.90;;;;;;5040171;28;19924;-92
2022/12/28 02:32:53;;;;;;;;;;;;;;;;;;;;;
2022/12/28 02:38:34;;;;;;;;;;;5.20;99.90;;;;;;5046080;28;19925;-91
2022/12/28 02:50:04;;;;;;;;;;;6.20;99.90;;;;;;5054959;28;19924;-92
2022/12/28 02:50:09;;;;;;;;;;;4.00;99.90;;;;;;5044598;28;19925;-92
2022/12/28 02:53:14;;;;;;;;;;;;;;;;;;;;;
2022/12/28 02:56:18;;;;;;;;;;;;;;;;;;;;;
2022/12/28 02:59:16;;;;;;;;;;;5.40;99.90;;;;;;5057533;28;19932;-92
2022/12/28 03:08:56;;;;;;;;;;;4.60;99.90;;;;;;5038028;28;19975;-92
2022/12/28 03:11:41;;;;;;;;;;;5.20;99.90;;;;;;5047772;28;19931;-92
2022/12/28 03:14:33;;;;;;;;;;;5.30;99.90;;;;;;5021466;28;19926;-92
2022/12/28 03:32:28;;;;;;;;;;;3.90;99.90;;;;;;5042473;28;19930;-93
2022/12/28 03:35:22;;;;;;;;;;;;;;;;;;;;;
2022/12/28 03:38:14;;;;;;;;;;;5.00;99.90;;;;;;5019386;28;19927;-92
2022/12/28 03:41:00;;;;;;;;;;;4.60;99.90;;;;;;5018943;28;19958;-91
2022/12/28 03:43:52;;;;;;;;;;;;;;;;;;;;;
2022/12/28 03:46:47;;;;;;;;;;;5.50;99.90;;;;;;4961239;28;19930;-93
2022/12/28 03:52:37;;;;;;;;;;;3.90;99.90;;;;;;5015347;28;20485;-92
2022/12/28 03:55:36;;;;;;;;;;;;;;;;;;;;;
2022/12/28 03:58:31;;;;;;;;;;;5.70;99.90;;;;;;5015701;28;19926;-91
2022/12/28 04:01:30;;;;;;;;;;;4.70;99.90;;;;;;5029351;28;20293;-94
2022/12/28 04:04:09;;;;;;;;;;;7.50;99.90;;;;;;5010139;28;19933;-94
2022/12/28 04:12:52;;;;;;;;;;;5.80;99.90;;;;;;4972964;28;19929;-90
2022/12/28 04:15:57;;;;;;;;;;;5.80;99.90;;;;;;5030724;28;19924;-91
2022/12/28 04:24:23;;;;;;;;;;;5.80;99.90;;;;;;5025094;28;19926;-93
2022/12/28 04:27:36;;;;;;;;;;;;;;;;;;;;;
2022/12/28 04:33:26;;;;;;;;;;;4.40;99.90;;;;;;5031446;28;20357;-91
2022/12/28 04:39:30;;;;;;;;;;;4.60;99.90;;;;;;4999290;28;19926;-95
2022/12/28 04:42:04;;;;;;;;;;;5.90;99.90;;;;;;5000608;28;19927;-93
2022/12/28 04:44:53;;;;;;;;;;;5.10;99.90;;;;;;5008374;28;20314;-92
2022/12/28 04:54:08;;;;;;;;;;;6.40;99.90;;;;;;5052793;28;19925;-92
2022/12/28 04:56:59;;;;;;;;;;;7.40;99.90;;;;;;4991958;28;19965;-93
2022/12/28 04:59:43;;;;;;;;;;;;;;;;;;;;;
2022/12/28 05:05:26;;;;;;;;;;;4.90;99.90;;;;;;5050997;28;19928;-91
2022/12/28 05:08:19;;;;;;;;;;;4.70;99.90;;;;;;5025832;28;19968;-89
2022/12/28 05:11:18;;;;;;;;;;;6.30;99.90;;;;;;5050477;28;19928;-90
2022/12/28 05:14:01;;;;;;;;;;;6.10;99.90;;;;;;5076621;28;19930;-91
2022/12/28 05:16:35;;;;;;;;;;;6.40;99.90;;;;;;5047887;28;19988;-91
2022/12/28 05:19:14;;;;;;;;;;;6.30;99.90;;;;;;5035533;28;19925;-91
2022/12/28 05:22:10;;;;;;;;;;;;;;;;;;;;;
2022/12/28 05:24:46;;;;;;;;;;;5.30;99.90;;;;;;5090508;28;19914;-91
2022/12/28 05:27:20;;;;;;;;;;;6.40;99.90;;;;;;5065634;28;20014;-91
2022/12/28 05:29:58;;;;;;;;;;;6.40;99.90;;;;;;5072279;28;19998;-95
2022/12/28 05:32:44;;;;;;;;;;;;;;;;;;;;;
2022/12/28 05:35:15;;;;;;;;;;;5.00;99.90;;;;;;5056530;28;19913;-90
2022/12/28 05:38:08;;;;;;;;;;;8.80;99.90;;;;;;5077497;28;20023;-93
2022/12/28 05:41:07;;;;;;;;;;;;;;;;;;;;;
2022/12/28 05:44:06;;;;;;;;;;;5.30;99.90;;;;;;5067350;28;19936;-92
2022/12/28 05:47:00;;;;;;;;;;;6.60;99.90;;;;;;5079351;28;19936;-91
2022/12/28 05:52:35;;;;;;;;;;;;;;;;;;;;;
2022/12/28 05:55:34;;;;;;;;;;;6.80;99.90;;;;;;5061315;28;19978;-90
2022/12/28 05:58:31;;;;;;;;;;;6.80;99.90;;;;;;4982739;28;19992;-94
2022/12/28 06:01:04;;;;;;;;;;;7.00;99.90;;;;;;5024387;28;20279;-93
2022/12/28 06:03:58;;;;;;;;;;;5.50;99.90;;;;;;5039784;28;19924;-94
2022/12/28 06:06:37;;;;;;;;;;;;;;;;;;;;;
2022/12/28 06:09:20;;;;;;;;;;;6.90;99.90;;;;;;5038618;28;19931;-90
2022/12/28 06:11:59;;;;;;;;;;;7.40;99.90;;;;;;5023228;28;19980;-92
2022/12/28 06:14:25;;;;;;;;;;;6.80;99.90;;;;;;5019574;28;20387;-91
2022/12/28 06:17:06;;;;;;;;;;;;;;;;;;;;;
2022/12/28 06:19:48;;;;;;;;;;;7.10;99.90;;;;;;5022036;28;19931;-90
2022/12/28 06:22:40;;;;;;;;;;;6.90;99.90;;;;;;5022249;28;20384;-91
2022/12/28 06:25:28;;;;;;;;;;;7.00;99.90;;;;;;5038257;28;19995;-95
2022/12/28 06:28:19;;;;;;;;;;;7.10;99.90;;;;;;5007693;28;19925;-92
2022/12/28 06:31:10;;;;;;;;;;;7.00;99.90;;;;;;4994476;28;19930;-92
2022/12/28 06:33:46;;;;;;;;;;;7.30;99.90;;;;;;4999581;28;19956;-91
2022/12/28 06:36:30;;;;;;;;;;;7.50;99.90;;;;;;5032073;28;20004;-92
2022/12/28 06:44:50;;;;;;;;;;;7.30;99.90;;;;;;5014912;28;19932;-91
2022/12/28 06:47:41;;;;;;;;;;;7.00;99.90;;;;;;5020464;28;19925;-92
2022/12/28 06:50:46;;;;;;;;;;;5.80;99.90;;;;;;5011803;28;20334;-92
2022/12/28 06:53:17;;;;;;;;;;;7.50;99.90;;;;;;5013084;28;19932;-91
2022/12/28 06:56:03;;;;;;;;;;;8.10;99.90;;;;;;5022417;28;20012;-92
2022/12/28 07:01:43;;;;;;;;;;;7.30;99.90;;;;;;5036365;28;20013;-93
2022/12/28 07:04:40;;;;;;;;;;;7.40;99.90;;;;;;5036954;28;19924;-94
2022/12/28 07:07:35;;;;;;;;;;;7.30;99.90;;;;;;5030999;28;19936;-93
2022/12/28 07:10:27;;;;;;;;;;;7.90;99.90;;;;;;5054869;28;19931;-92
2022/12/28 07:13:11;;;;;;;;;;;;;;;;;;;;;
2022/12/28 07:16:07;;;;;;;;;;;;;;;;;;;;;
2022/12/28 07:22:12;;;;;;;;;;;7.40;99.90;;;;;;5047967;28;19935;-91
2022/12/28 07:24:43;;;;;;;;;;;7.70;99.90;;;;;;5039477;28;19931;-91
2022/12/28 07:27:50;;;;;;;;;;;7.60;99.90;;;;;;5017831;28;20450;-92
2022/12/28 07:34:14;;;;;;;;;;;7.70;99.90;;;;;;5071087;28;19947;-91
2022/12/28 07:36:56;;;;;;;;;;;9.00;99.90;;;;;;5041986;28;19931;-90
2022/12/28 07:42:52;;;;;;;;;;;6.50;99.90;;;;;;5046308;28;19966;-91
2022/12/28 07:45:41;;;;;;;;;;;7.80;99.90;;;;;;5077587;28;19978;-90
2022/12/28 07:48:39;;;;;;;;;;;6.40;99.90;;;;;;5050084;28;19924;-91
2022/12/28 07:54:34;;;;;;;;;;;7.90;99.90;;;;;;5022247;28;19932;-91
2022/12/28 07:57:33;;;;;;;;;;;;;;;;;;;;;
2022/12/28 08:00:30;;;;;;;;;;;7.80;99.90;;;;;;5071010;28;19971;-92
2022/12/28 08:10:09;;;;;;;;;;;;;;;;;;;;;
2022/12/28 08:12:55;;;;;;;;;;;7.90;99.90;;;;;;5049663;28;20015;-91
2022/12/28 08:15:42;;;;;;;;;;;8.20;99.90;;;;;;5071041;28;19924;-90
2022/12/28 08:18:29;;;;;;;;;;;7.90;99.90;;;;;;5051825;28;19931;-91
2022/12/28 08:21:10;;;;;;;;;;;7.10;99.90;;;;;;5044207;28;19924;-92
2022/12/28 08:24:06;;;;;;;;;;;;;;;;;;;;;
2022/12/28 08:26:57;;;;;;;;;;;7.90;99.90;;;;;;5067778;28;19925;-92
2022/12/28 08:32:43;;;;;;;;;;;8.20;99.90;;;;;;5042090;28;20045;-90
2022/12/28 08:35:22;;;;;;;;;;;;;;;;;;;;;
2022/12/28 08:38:37;;;;;;;;;;;;;;;;;;;;;
2022/12/28 08:45:08;;;;;;;;;;;;;;;;;;;;;
2022/12/28 08:51:20;;;;;;;;;;;;;;;;;;;;;
2022/12/28 08:54:03;;;;;;;;;;;;;;;;;;;;;
2022/12/28 08:56:39;;;;;;;;;;;8.30;99.90;;;;;;5072826;28;19932;-89
2022/12/28 08:59:28;;;;;;;;;;;7.90;99.90;;;;;;5057276;28;20287;-91
2022/12/28 09:02:25;;;;;;;;;;;8.00;99.90;;;;;;5047396;28;19925;-92
2022/12/28 09:10:53;;;;;;;;;;;9.50;99.90;;;;;;5031598;28;19925;-88
2022/12/28 09:13:23;;;;;;;;;;;7.10;99.90;;;;;;5022611;28;19925;-90
2022/12/28 09:16:25;;;;;;;;;;;;;;;;;;;;;
2022/12/28 09:22:13;;;;;;;;;;;8.40;99.90;;;;;;5049856;28;20418;-91
2022/12/28 09:25:08;;;;;;;;;;;7.90;99.90;;;;;;5015562;28;19979;-90
2022/12/28 09:27:49;;;;;;;;;;;;;;;;;;;;;
2022/12/28 09:30:40;;;;;;;;;;;6.60;99.90;;;;;;5047538;28;19924;-90
2022/12/28 09:39:15;;;;;;;;;;;8.00;99.90;;;;;;5047779;28;19925;-90
2022/12/28 09:42:06;;;;;;;;;;;8.20;99.90;;;;;;5058508;28;19994;-90
2022/12/28 09:45:04;;;;;;;;;;;6.80;99.90;;;;;;5062976;28;20319;-91
2022/12/28 09:47:43;;;;;;;;;;;;;;;;;;;;;
2022/12/28 09:50:23;;;;;;;;;;;8.30;99.90;;;;;;5062119;28;19932;-91
2022/12/28 09:53:17;;;;;;;;;;;;;;;;;;;;;
2022/12/28 09:56:03;;;;;;;;;;;8.80;99.90;;;;;;5082437;28;19935;-92
2022/12/28 09:58:53;;;;;;;;;;;8.20;99.90;;;;;;5065876;27;19963;-91
2022/12/28 10:01:59;;;;;;;;;;;8.10;99.90;;;;;;5111991;27;19999;-90
2022/12/28 10:04:51;;;;;;;;;;;8.20;99.90;;;;;;5020729;28;19948;-92
2022/12/28 10:07:41;;;;;;;;;;;;;;;;;;;;;
2022/12/28 10:10:26;;;;;;;;;;;7.80;99.90;;;;;;5068588;28;19935;-90
2022/12/28 10:13:31;;;;;;;;;;;8.20;99.90;;;;;;5071169;28;19968;-92
2022/12/28 10:20:01;;;;;;;;;;;;;;;;;;;;;
2022/12/28 10:22:58;;;;;;;;;;;;;;;;;;;;;
2022/12/28 10:25:31;;;;;;;;;;;8.30;99.90;;;;;;5062181;28;19924;-92
2022/12/28 10:33:58;;;;;;;;;;;8.40;99.90;;;;;;5065172;28;19975;-90
2022/12/28 10:36:31;;;;;;;;;;;8.40;99.90;;;;;;5044332;28;19935;-91
2022/12/28 10:39:13;;;;;;;;;;;;;;;;;;;;;
2022/12/28 10:41:39;;;;;;;;;;;8.20;99.90;;;;;;5042485;28;19924;-91
2022/12/28 10:44:34;;;;;;;;;;;8.30;99.90;;;;;;5042083;28;19925;-91
2022/12/28 10:47:42;;;;;;;;;;;8.70;99.90;;;;;;5021510;28;19981;-90
2022/12/28 10:50:00;;;;;;;;;;;7.80;99.90;;;;;;5046632;28;19951;-92
2022/12/28 10:52:38;;;;;;;;;;;;;;;;;;;;;
2022/12/28 10:55:43;;;;;;;;;;;;;;;;;;;;;
2022/12/28 11:01:13;;;;;;;;;;;7.40;99.90;;;;;;5037134;28;19924;-90
2022/12/28 11:06:59;;;;;;;;;;;8.40;99.90;;;;;;5055614;28;19924;-90
2022/12/28 11:09:56;;;;;;;;;;;8.40;99.90;;;;;;5056183;28;19925;-91
2022/12/28 11:12:48;;;;;;;;;;;7.40;99.90;;;;;;5057522;28;19931;-92
2022/12/28 11:19:12;;;;;;;;;;;8.80;99.90;;;;;;5057452;28;19925;-92
2022/12/28 11:21:54;;;;;;;;;;;;;;;;;;;;;
2022/12/28 11:24:35;;;;;;;;;;;8.50;99.90;;;;;;4948346;28;19936;-90
2022/12/28 11:27:22;;;;;;;;;;;;;;;;;;;;;
2022/12/28 11:30:23;;;;;;;;;;;8.80;99.90;;;;;;5057616;28;19924;-94
2022/12/28 11:32:55;;;;;;;;;;;8.50;99.90;;;;;;5025374;28;20008;-90
2022/12/28 11:35:43;;;;;;;;;;;;;;;;;;;;;
2022/12/28 11:38:32;;;;;;;;;;;7.20;99.90;;;;;;5056845;28;19924;-92
2022/12/28 11:44:27;;;;;;;;;;;8.70;99.90;;;;;;5015950;28;19966;-91
2022/12/28 11:47:32;;;;;;;;;;;10.30;99.90;;;;;;5041202;28;19928;-91
2022/12/28 11:50:22;;;;;;;;;;;7.90;99.90;;;;;;5040967;28;19925;-91
2022/12/28 11:53:13;;;;;;;;;;;8.90;99.90;;;;;;5056896;28;20007;-92
2022/12/28 11:56:12;;;;;;;;;;;;;;;;;;;;;
2022/12/28 11:59:04;;;;;;;;;;;7.10;99.90;;;;;;5051046;28;19929;-92
2022/12/28 12:01:43;;;;;;;;;;;;;;;;;;;;;
2022/12/28 12:04:28;;;;;;;;;;;8.70;99.90;;;;;;5055869;28;19971;-90
2022/12/28 12:10:14;;;;;;;;;;;8.50;99.90;;;;;;5057785;28;19924;-91
2022/12/28 12:12:59;;;;;;;;;;;10.00;99.90;;;;;;5052307;28;19951;-93
2022/12/28 12:16:07;;;;;;;;;;;;;;;;;;;;;
2022/12/28 12:18:55;;;;;;;;;;;8.50;99.90;;;;;;5055767;28;20226;-89
2022/12/28 12:21:31;;;;;;;;;;;;;;;;;;;;;
2022/12/28 12:24:36;;;;;;;;;;;;;;;;;;;;;
2022/12/28 12:27:43;;;;;;;;;;;7.50;99.90;;;;;;5048569;28;19928;-92
2022/12/28 12:30:29;;;;;;;;;;;9.20;99.90;;;;;;5038042;28;20017;-91
2022/12/28 12:36:14;;;;;;;;;;;8.50;99.90;;;;;;5037901;28;19925;-91
2022/12/28 12:42:32;;;;;;;;;;;;;;;;;;;;;
2022/12/28 12:45:01;;;;;;;;;;;8.80;99.90;;;;;;5049973;28;19924;-90
2022/12/28 12:48:15;;;;;;;;;;;8.70;99.90;;;;;;5046309;28;19931;-95
2022/12/28 12:51:16;;;;;;;;;;;8.70;99.90;;;;;;4941020;28;19933;-92
2022/12/28 12:53:49;;;;;;;;;;;8.50;99.90;;;;;;4924007;28;19926;-92
2022/12/28 12:56:37;;;;;;;;;;;;;;;;;;;;;
2022/12/28 12:59:25;;;;;;;;;;;8.00;99.90;;;;;;5043560;28;20386;-92
2022/12/28 13:02:15;;;;;;;;;;;8.50;99.90;;;;;;5055517;28;20447;-92
2022/12/28 13:04:57;;;;;;;;;;;;;;;;;;;;;
2022/12/28 13:07:43;;;;;;;;;;;8.40;99.90;;;;;;5053604;28;19924;-90
2022/12/28 13:10:20;;;;;;;;;;;8.70;99.90;;;;;;5045289;28;19990;-91
2022/12/28 13:15:39;;;;;;;;;;;8.70;99.90;;;;;;5045830;28;19932;-90
2022/12/28 13:18:34;;;;;;;;;;;8.50;99.90;;;;;;5038400;28;19955;-91
2022/12/28 13:21:21;;;;;;;;;;;;;;;;;;;;;
2022/12/28 13:24:07;;;;;;;;;;;8.70;99.90;;;;;;5040629;28;19924;-91
2022/12/28 13:30:08;;;;;;;;;;;;;;;;;;;;;
2022/12/28 13:33:03;;;;;;;;;;;8.70;99.90;;;;;;5043459;28;19928;-90
2022/12/28 13:36:11;;;;;;;;;;;8.50;99.90;;;;;;5021753;28;19968;-91
2022/12/28 13:38:47;;;;;;;;;;;9.70;99.90;;;;;;5013842;28;19940;-90
2022/12/28 13:41:25;;;;;;;;;;;8.80;99.90;;;;;;5024437;28;20872;-94
2022/12/28 13:44:08;;;;;;;;;;;8.60;99.90;;;;;;5018837;28;19924;-91
2022/12/28 13:46:52;;;;;;;;;;;;;;;;;;;;;
2022/12/28 13:49:40;;;;;;;;;;;8.60;99.90;;;;;;5031407;28;19924;-91
2022/12/28 13:52:34;;;;;;;;;;;8.90;99.90;;;;;;5020761;28;20434;-95
2022/12/28 13:55:09;;;;;;;;;;;8.70;99.90;;;;;;5032511;28;20055;-92
2022/12/28 13:57:45;;;;;;;;;;;8.40;99.90;;;;;;5025465;28;19939;-89
2022/12/28 14:00:18;;;;;;;;;;;8.40;99.90;;;;;;5050520;28;19986;-90
2022/12/28 14:06:09;;;;;;;;;;;;;;;;;;;;;
2022/12/28 14:08:49;;;;;;;;;;;8.50;99.90;;;;;;5066535;28;19932;-91
2022/12/28 14:11:18;;;;;;;;;;;8.60;99.90;;;;;;5072172;28;20176;-93
2022/12/28 14:13:54;;;;;;;;;;;8.50;99.90;;;;;;5078942;28;19943;-93
2022/12/28 14:16:29;;;;;;;;;;;8.40;99.90;;;;;;5076639;28;19968;-91
2022/12/28 14:18:59;;;;;;;;;;;8.50;99.90;;;;;;5072110;28;19950;-91
2022/12/28 14:21:54;;;;;;;;;;;8.50;99.90;;;;;;5059911;28;19928;-90
2022/12/28 14:24:39;;;;;;;;;;;;;;;;;;;;;
2022/12/28 14:27:08;;;;;;;;;;;8.20;99.90;;;;;;5050930;28;20027;-91
2022/12/28 14:29:46;;;;;;;;;;;;;;;;;;;;;
2022/12/28 14:32:23;;;;;;;;;;;8.50;99.90;;;;;;5059485;28;20287;-91
2022/12/28 14:34:58;;;;;;;;;;;8.40;99.90;;;;;;5041856;28;19924;-91
2022/12/28 14:37:38;;;;;;;;;;;8.40;99.90;;;;;;5036388;28;20360;-90
2022/12/28 14:40:50;;;;;;;;;;;8.30;99.90;;;;;;5060238;28;19946;-91
2022/12/28 14:43:44;;;;;;;;;;;;;;;;;;;;;
2022/12/28 14:46:19;;;;;;;;;;;8.60;99.90;;;;;;5057823;28;19930;-91
2022/12/28 14:48:56;;;;;;;;;;;8.00;99.90;;;;;;5033958;28;19931;-91
2022/12/28 14:51:29;;;;;;;;;;;8.40;99.90;;;;;;5026300;28;20450;-90
2022/12/28 14:54:29;;;;;;;;;;;8.30;99.90;;;;;;5054775;28;20340;-90
2022/12/28 14:57:14;;;;;;;;;;;8.10;99.90;;;;;;5028831;28;19925;-90
2022/12/28 14:59:55;;;;;;;;;;;8.40;99.90;;;;;;5058424;28;19947;-90
2022/12/28 15:02:33;;;;;;;;;;;7.60;99.90;;;;;;5041069;28;20304;-91
2022/12/28 15:05:25;;;;;;;;;;;7.10;99.90;;;;;;5053603;28;19929;-91
2022/12/28 15:07:50;;;;;;;;;;;8.40;99.90;;;;;;5038846;28;19931;-90
2022/12/28 15:10:43;;;;;;;;;;;6.90;99.90;;;;;;5021941;28;19999;-90
2022/12/28 15:13:29;;;;;;;;;;;8.60;99.90;;;;;;5037199;28;19979;-90
2022/12/28 15:16:11;;;;;;;;;;;;;;;;;;;;;
2022/12/28 15:18:45;;;;;;;;;;;8.70;99.90;;;;;;5037746;28;19932;-90
2022/12/28 15:21:17;;;;;;;;;;;7.30;99.90;;;;;;5020665;28;20027;-90
2022/12/28 15:24:11;;;;;;;;;;;8.20;99.90;;;;;;5036716;28;19929;-94
2022/12/28 15:26:40;;;;;;;;;;;8.30;99.90;;;;;;5019301;28;19929;-91
2022/12/28 15:29:21;;;;;;;;;;;7.90;99.90;;;;;;5017489;28;20035;-91
2022/12/28 15:31:47;;;;;;;;;;;8.20;99.90;;;;;;5006049;28;20047;-90
2022/12/28 15:37:26;;;;;;;;;;;7.90;99.90;;;;;;4994888;28;19927;-91
2022/12/28 15:40:04;;;;;;;;;;;;;;;;;;;;;
2022/12/28 15:42:56;;;;;;;;;;;7.20;99.90;;;;;;5020983;28;20361;-90
2022/12/28 15:45:24;;;;;;;;;;;7.00;99.90;;;;;;5027412;28;19937;-90
2022/12/28 15:48:06;;;;;;;;;;;;;;;;;;;;;
2022/12/28 15:50:34;;;;;;;;;;;8.20;99.90;;;;;;5029148;28;20292;-90
2022/12/28 15:53:10;;;;;;;;;;;8.50;99.90;;;;;;5020115;28;19931;-89
2022/12/28 15:56:11;;;;;;;;;;;;;;;;;;;;;
2022/12/28 15:58:40;;;;;;;;;;;8.30;99.90;;;;;;5035690;28;19932;-90
2022/12/28 16:01:35;;;;;;;;;;;9.10;99.90;;;;;;5003628;28;20280;-89
2022/12/28 16:04:09;;;;;;;;;;;8.30;99.90;;;;;;5019525;28;19929;-90
2022/12/28 16:06:55;;;;;;;;;;;8.20;99.90;;;;;;4998834;28;19925;-90
2022/12/28 16:09:47;;;;;;;;;;;;;;;;;;;;;
2022/12/28 16:12:22;;;;;;;;;;;8.30;99.90;;;;;;4994196;28;19979;-90
2022/12/28 16:15:04;;;;;;;;;;;8.30;99.90;;;;;;5015704;28;20021;-91
2022/12/28 16:18:02;;;;;;;;;;;;;;;;;;;;;
2022/12/28 16:20:34;;;;;;;;;;;7.00;99.90;;;;;;5057050;28;19925;-91
2022/12/28 16:23:19;;;;;;;;;;;8.30;99.90;;;;;;5071865;28;20023;-91
2022/12/28 16:26:07;;;;;;;;;;;8.30;99.90;;;;;;5037067;28;20020;-91
2022/12/28 16:28:53;;;;;;;;;;;8.30;99.90;;;;;;4993032;28;20031;-92
2022/12/28 16:32:09;;;;;;;;;;;7.20;99.90;;;;;;5039948;28;19931;-92
2022/12/28 16:35:08;;;;;;;;;;;8.30;99.90;;;;;;5011330;28;20322;-92
2022/12/28 16:37:42;;;;;;;;;;;8.20;99.90;;;;;;4981078;28;20015;-91
2022/12/28 16:40:17;;;;;;;;;;;8.40;99.90;;;;;;5022847;28;19924;-91
2022/12/28 16:42:51;;;;;;;;;;;8.30;99.90;;;;;;5053394;28;19925;-91
2022/12/28 16:48:36;;;;;;;;;;;7.10;99.90;;;;;;5023568;28;19929;-91
2022/12/28 16:51:23;;;;;;;;;;;;;;;;;;;;;
2022/12/28 16:54:12;;;;;;;;;;;;;;;;;;;;;
2022/12/28 16:56:43;;;;;;;;;;;8.30;99.90;;;;;;5046268;28;19925;-89
2022/12/28 17:02:21;;;;;;;;;;;8.30;99.90;;;;;;5062269;28;19934;-90
2022/12/28 17:04:47;;;;;;;;;;;8.20;99.90;;;;;;5043039;28;19944;-92
2022/12/28 17:07:28;;;;;;;;;;;8.60;99.90;;;;;;5056963;28;19924;-91
2022/12/28 17:10:02;;;;;;;;;;;8.10;99.90;;;;;;5039461;28;19925;-91
2022/12/28 17:12:38;;;;;;;;;;;8.30;99.90;;;;;;5014841;28;20407;-92
2022/12/28 17:15:17;;;;;;;;;;;8.10;99.90;;;;;;5020478;28;19933;-91
2022/12/28 17:17:53;;;;;;;;;;;7.70;99.90;;;;;;5038792;28;20384;-91
2022/12/28 17:20:29;;;;;;;;;;;;;;;;;;;;;
2022/12/28 17:23:23;;;;;;;;;;;8.30;99.90;;;;;;5055612;28;20029;-90
2022/12/28 17:26:11;;;;;;;;;;;8.10;99.90;;;;;;5037071;28;20015;-91
2022/12/28 17:31:48;;;;;;;;;;;;;;;;;;;;;
2022/12/28 17:34:22;;;;;;;;;;;8.10;99.90;;;;;;5054524;28;19925;-91
2022/12/28 17:37:16;;;;;;;;;;;8.10;99.90;;;;;;5027855;28;19964;-92
2022/12/28 17:39:57;;;;;;;;;;;7.10;99.90;;;;;;5022243;28;19935;-94
2022/12/28 17:42:31;;;;;;;;;;;8.30;99.90;;;;;;5038990;28;20312;-92
2022/12/28 17:48:21;;;;;;;;;;;;;;;;;;;;;
2022/12/28 17:51:03;;;;;;;;;;;;;;;;;;;;;
2022/12/28 17:53:48;;;;;;;;;;;;;;;;;;;;;
2022/12/28 17:56:21;;;;;;;;;;;8.20;99.90;;;;;;5058637;28;19936;-93
2022/12/28 17:59:22;;;;;;;;;;;8.40;99.90;;;;;;5044676;28;19974;-92
2022/12/28 18:01:55;;;;;;;;;;;8.20;99.90;;;;;;5059479;28;19928;-91
2022/12/28 18:04:37;;;;;;;;;;;;;;;;;;;;;
2022/12/28 18:10:25;;;;;;;;;;;;;;;;;;;;;
2022/12/28 18:13:01;;;;;;;;;;;8.00;99.90;;;;;;5027192;28;19926;-92
2022/12/28 18:15:42;;;;;;;;;;;;;;;;;;;;;
2022/12/28 18:18:16;;;;;;;;;;;7.30;99.90;;;;;;5041723;28;20005;-91
2022/12/28 18:20:53;;;;;;;;;;;8.00;99.90;;;;;;5025764;28;19926;-91
2022/12/28 18:24:23;;;;;;;;;;;8.00;99.90;;;;;;5048777;28;19920;-91
2022/12/28 18:26:34;;;;;;;;;;;7.60;99.90;;;;;;5055479;28;19921;-91
2022/12/28 18:32:14;;;;;;;;;;;8.00;99.90;;;;;;5061804;28;19926;-92
2022/12/28 18:35:26;;;;;;;;;;;7.10;99.90;;;;;;4976087;28;19927;-91
2022/12/28 18:37:55;;;;;;;;;;;7.50;99.90;;;;;;5059732;28;19938;-92
2022/12/28 18:40:50;;;;;;;;;;;7.60;99.90;;;;;;5034808;28;19926;-91
2022/12/28 18:43:29;;;;;;;;;;;8.10;99.90;;;;;;5025728;28;19936;-91
2022/12/28 18:46:03;;;;;;;;;;;7.80;99.90;;;;;;5009795;28;19926;-91
2022/12/28 18:48:59;;;;;;;;;;;;;;;;;;;;;
2022/12/28 18:51:41;;;;;;;;;;;7.90;99.90;;;;;;5030630;28;20293;-91
2022/12/28 18:54:36;;;;;;;;;;;8.10;99.90;;;;;;5033404;28;20088;-92
2022/12/28 18:57:17;;;;;;;;;;;;;;;;;;;;;
2022/12/28 18:59:47;;;;;;;;;;;7.90;99.90;;;;;;5035724;28;20008;-93
2022/12/28 19:11:23;;;;;;;;;;;8.10;99.90;;;;;;5029937;28;20067;-91
2022/12/28 19:14:22;;;;;;;;;;;7.90;99.90;;;;;;5038248;28;20391;-90
2022/12/28 19:16:48;;;;;;;;;;;8.00;99.90;;;;;;5032959;28;19931;-91
2022/12/28 19:19:37;;;;;;;;;;;7.90;99.90;;;;;;5021727;28;19925;-93
2022/12/28 19:25:09;;;;;;;;;;;7.90;99.90;;;;;;4992974;28;19936;-91
2022/12/28 19:28:10;;;;;;;;;;;;;;;;;;;;;
2022/12/28 19:30:57;;;;;;;;;;;;;;;;;;;;;
2022/12/28 19:34:17;;;;;;;;;;;6.70;99.90;;;;;;5037431;28;19929;-92
2022/12/28 19:36:40;;;;;;;;;;;8.10;99.90;;;;;;5002668;28;19925;-92
2022/12/28 19:39:19;;;;;;;;;;;;;;;;;;;;;
2022/12/28 19:42:05;;;;;;;;;;;7.90;99.90;;;;;;5037092;28;19925;-93
2022/12/28 19:44:40;;;;;;;;;;;8.10;99.90;;;;;;5003978;28;20377;-92
2022/12/28 19:47:14;;;;;;;;;;;7.90;99.90;;;;;;5017646;28;20262;-90
2022/12/28 19:50:09;;;;;;;;;;;;;;;;;;;;;
2022/12/28 19:52:48;;;;;;;;;;;8.20;99.90;;;;;;5021830;28;19979;-91
2022/12/28 20:01:14;;;;;;;;;;;;;;;;;;;;;
2022/12/28 20:04:18;;;;;;;;;;;8.20;99.90;;;;;;5037169;28;19924;-92
2022/12/28 20:13:18;;;;;;;;;;;8.20;99.90;;;;;;4964850;28;20044;-91
2022/12/28 20:16:12;;;;;;;;;;;9.10;99.90;;;;;;5009422;28;20369;-92
2022/12/28 20:22:06;;;;;;;;;;;;;;;;;;;;;
2022/12/28 20:24:49;;;;;;;;;;;;;;;;;;;;;
2022/12/28 20:27:30;;;;;;;;;;;8.20;99.90;;;;;;5036908;28;20209;-91
2022/12/28 20:30:09;;;;;;;;;;;;;;;;;;;;;
2022/12/28 20:35:30;;;;;;;;;;;8.20;99.90;;;;;;5007788;28;19930;-90
2022/12/28 20:38:04;;;;;;;;;;;7.40;99.90;;;;;;5022821;28;20346;-91
2022/12/28 20:40:33;;;;;;;;;;;8.30;99.90;;;;;;5020211;28;19927;-91
2022/12/28 20:46:19;;;;;;;;;;;8.10;99.90;;;;;;4976400;28;20398;-91
2022/12/28 20:49:08;;;;;;;;;;;8.30;99.90;;;;;;4944668;28;19926;-91
2022/12/28 20:51:57;;;;;;;;;;;8.20;99.90;;;;;;4975026;28;20341;-91
2022/12/28 20:55:06;;;;;;;;;;;8.40;99.90;;;;;;4976583;28;19925;-93
2022/12/28 20:57:44;;;;;;;;;;;7.10;99.90;;;;;;4976016;28;19930;-92
2022/12/28 21:00:38;;;;;;;;;;;8.50;99.90;;;;;;4962037;28;19991;-93
2022/12/28 21:03:29;;;;;;;;;;;;;;;;;;;;;
2022/12/28 21:06:24;;;;;;;;;;;8.50;99.90;;;;;;4976329;28;19980;-92
2022/12/28 21:08:55;;;;;;;;;;;8.40;99.90;;;;;;4958209;28;20462;-90
2022/12/28 21:14:52;;;;;;;;;;;;;;;;;;;;;
2022/12/28 21:17:41;;;;;;;;;;;;;;;;;;;;;
2022/12/28 21:23:31;;;;;;;;;;;8.70;99.90;;;;;;5026690;28;19971;-93
2022/12/28 21:29:45;;;;;;;;;;;;;;;;;;;;;
2022/12/28 21:32:19;;;;;;;;;;;7.60;99.90;;;;;;5017105;28;19928;-91
2022/12/28 21:34:47;;;;;;;;;;;8.90;99.90;;;;;;5017877;28;20027;-92
2022/12/28 21:40:18;;;;;;;;;;;;;;;;;;;;;
2022/12/28 21:46:03;;;;;;;;;;;8.60;99.90;;;;;;5005712;28;19925;-91
2022/12/28 21:48:39;;;;;;;;;;;9.00;99.90;;;;;;5016461;28;19932;-91
2022/12/28 21:51:55;;;;;;;;;;;;;;;;;;;;;
2022/12/28 21:54:20;;;;;;;;;;;9.00;99.90;;;;;;5024751;28;19929;-92
2022/12/28 21:56:56;;;;;;;;;;;8.80;99.90;;;;;;5032371;28;20074;-90
2022/12/28 22:14:13;;;;;;;;;;;8.80;99.90;;;;;;5038388;28;20008;-94
2022/12/28 22:16:50;;;;;;;;;;;9.20;99.90;;;;;;5054539;28;20019;-91
2022/12/28 22:19:30;;;;;;;;;;;9.00;99.90;;;;;;5035316;28;20384;-95
2022/12/28 22:21:55;;;;;;;;;;;9.10;99.90;;;;;;5036491;28;19924;-91
2022/12/28 22:24:51;;;;;;;;;;;;;;;;;;;;;